KLM0535 HRYR-HUEN
Flight info
| Callsign | KLM0535 |
|---|---|
| Flight time | 0h 35m |
| Altitude | 25000 |
| Route | ALSAR UL432 MANDY MANDY2A |
| Aircraft | B738/M-SDE2E3FGHIRWXY/LB1 |
Departure
| Time | 2026-05-08 01:22 |
|---|---|
| Airport | Kigali International Airport (HRYR) |
Arrival
| Time | 2026-05-08 01:57 |
|---|---|
| Airport | Entebbe International Airport (HUEN) |
| Time | Latitude | Longitude | Altitude | Speed | Heading |
|---|---|---|---|---|---|
| 2026-05-08 01:12 | -1.96413 | 30.13539 | 4899 ft | 0 kts | 332° |
| 2026-05-08 01:15 | -1.96412 | 30.13538 | 4899 ft | 0 kts | 332° |
| 2026-05-08 01:16 | -1.96405 | 30.13534 | 4899 ft | 6 kts | 323° |
| 2026-05-08 01:16 | -1.96410 | 30.13503 | 4899 ft | 8 kts | 201° |
| 2026-05-08 01:16 | -1.96467 | 30.13557 | 4899 ft | 20 kts | 127° |
| 2026-05-08 01:16 | -1.96560 | 30.13643 | 4899 ft | 20 kts | 139° |
| 2026-05-08 01:17 | -1.96688 | 30.13752 | 4899 ft | 24 kts | 139° |
| 2026-05-08 01:17 | -1.96780 | 30.13831 | 4899 ft | 15 kts | 139° |
| 2026-05-08 01:17 | -1.96836 | 30.13908 | 4899 ft | 13 kts | 106° |
| 2026-05-08 01:17 | -1.96865 | 30.14019 | 4899 ft | 20 kts | 102° |
| 2026-05-08 01:18 | -1.96895 | 30.14161 | 4899 ft | 21 kts | 101° |
| 2026-05-08 01:18 | -1.96921 | 30.14300 | 4899 ft | 20 kts | 99° |
| 2026-05-08 01:18 | -1.96943 | 30.14433 | 4899 ft | 19 kts | 99° |
| 2026-05-08 01:18 | -1.96966 | 30.14569 | 4899 ft | 22 kts | 99° |
| 2026-05-08 01:19 | -1.96992 | 30.14727 | 4899 ft | 23 kts | 99° |
| 2026-05-08 01:19 | -1.97015 | 30.14880 | 4899 ft | 22 kts | 98° |
| 2026-05-08 01:19 | -1.97040 | 30.15027 | 4899 ft | 21 kts | 103° |
| 2026-05-08 01:19 | -1.97082 | 30.15161 | 4899 ft | 17 kts | 116° |
| 2026-05-08 01:20 | -1.97114 | 30.15248 | 4899 ft | 7 kts | 43° |
| 2026-05-08 01:20 | -1.97086 | 30.15234 | 4899 ft | 5 kts | 272° |
| 2026-05-08 01:20 | -1.97085 | 30.15223 | 4899 ft | 0 kts | 276° |
| 2026-05-08 01:21 | -1.97065 | 30.15120 | 4899 ft | 47 kts | 284° |
| 2026-05-08 01:21 | -1.96966 | 30.14544 | 4899 ft | 117 kts | 275° |
| 2026-05-08 01:21 | -1.96774 | 30.13546 | 4957 ft | 170 kts | 282° |
| 2026-05-08 01:22 | -1.96542 | 30.12324 | 5626 ft | 184 kts | 281° |
| 2026-05-08 01:22 | -1.96330 | 30.11088 | 6621 ft | 179 kts | 279° |
| 2026-05-08 01:22 | -1.96064 | 30.09904 | 7481 ft | 178 kts | 291° |
| 2026-05-08 01:22 | -1.95212 | 30.08957 | 8069 ft | 187 kts | 327° |
| 2026-05-08 01:23 | -1.93927 | 30.08626 | 8494 ft | 209 kts | 358° |
| 2026-05-08 01:23 | -1.92455 | 30.09036 | 8787 ft | 235 kts | 29° |
| 2026-05-08 01:23 | -1.91174 | 30.10147 | 9263 ft | 253 kts | 50° |
| 2026-05-08 01:23 | -1.90101 | 30.11627 | 9743 ft | 272 kts | 54° |
| 2026-05-08 01:24 | -1.88955 | 30.13221 | 10214 ft | 291 kts | 54° |
| 2026-05-08 01:24 | -1.87743 | 30.14912 | 10943 ft | 299 kts | 55° |
| 2026-05-08 01:24 | -1.86527 | 30.16611 | 11614 ft | 310 kts | 55° |
| 2026-05-08 01:24 | -1.85239 | 30.18409 | 12098 ft | 327 kts | 55° |
| 2026-05-08 01:25 | -1.83874 | 30.20315 | 12471 ft | 346 kts | 55° |
| 2026-05-08 01:25 | -1.82433 | 30.22328 | 12756 ft | 366 kts | 55° |
| 2026-05-08 01:25 | -1.80918 | 30.24444 | 12999 ft | 384 kts | 55° |
| 2026-05-08 01:25 | -1.79331 | 30.26662 | 13218 ft | 400 kts | 55° |
| 2026-05-08 01:26 | -1.77687 | 30.28960 | 13561 ft | 411 kts | 55° |
| 2026-05-08 01:26 | -1.76013 | 30.31297 | 14104 ft | 415 kts | 55° |
| 2026-05-08 01:26 | -1.74326 | 30.33654 | 14673 ft | 418 kts | 55° |
| 2026-05-08 01:26 | -1.72629 | 30.36027 | 15216 ft | 421 kts | 54° |
| 2026-05-08 01:27 | -1.70921 | 30.38414 | 15736 ft | 424 kts | 54° |
| 2026-05-08 01:27 | -1.69196 | 30.40825 | 16234 ft | 427 kts | 54° |
| 2026-05-08 01:27 | -1.67461 | 30.43250 | 16711 ft | 430 kts | 54° |
| 2026-05-08 01:27 | -1.65715 | 30.45691 | 17165 ft | 433 kts | 54° |
| 2026-05-08 01:28 | -1.63958 | 30.48147 | 17631 ft | 436 kts | 54° |
| 2026-05-08 01:28 | -1.62190 | 30.50619 | 18060 ft | 438 kts | 54° |
| 2026-05-08 01:28 | -1.60410 | 30.53107 | 18468 ft | 441 kts | 54° |
| 2026-05-08 01:28 | -1.58620 | 30.55607 | 18823 ft | 445 kts | 54° |
| 2026-05-08 01:29 | -1.56808 | 30.58140 | 19206 ft | 448 kts | 54° |
| 2026-05-08 01:29 | -1.54989 | 30.60680 | 19577 ft | 450 kts | 54° |
| 2026-05-08 01:29 | -1.53164 | 30.63232 | 19887 ft | 454 kts | 54° |
| 2026-05-08 01:29 | -1.51323 | 30.65804 | 20232 ft | 456 kts | 54° |
| 2026-05-08 01:30 | -1.49472 | 30.68389 | 20560 ft | 458 kts | 54° |
| 2026-05-08 01:30 | -1.47611 | 30.70990 | 20872 ft | 461 kts | 54° |
| 2026-05-08 01:30 | -1.45740 | 30.73592 | 21168 ft | 463 kts | 54° |
| 2026-05-08 01:30 | -1.43723 | 30.76116 | 21457 ft | 466 kts | 50° |
| 2026-05-08 01:31 | -1.41567 | 30.78542 | 21732 ft | 468 kts | 48° |
| 2026-05-08 01:31 | -1.39338 | 30.80930 | 21996 ft | 470 kts | 47° |
| 2026-05-08 01:31 | -1.37094 | 30.83318 | 22252 ft | 472 kts | 47° |
| 2026-05-08 01:31 | -1.34848 | 30.85725 | 22500 ft | 475 kts | 47° |
| 2026-05-08 01:32 | -1.32599 | 30.88150 | 22738 ft | 477 kts | 47° |
| 2026-05-08 01:32 | -1.30345 | 30.90586 | 22965 ft | 479 kts | 47° |
| 2026-05-08 01:32 | -1.28087 | 30.93035 | 23190 ft | 480 kts | 48° |
| 2026-05-08 01:32 | -1.25817 | 30.95498 | 23412 ft | 482 kts | 48° |
| 2026-05-08 01:33 | -1.23544 | 30.97969 | 23618 ft | 484 kts | 48° |
| 2026-05-08 01:33 | -1.21258 | 31.00455 | 23819 ft | 485 kts | 48° |
| 2026-05-08 01:33 | -1.18972 | 31.02943 | 24013 ft | 487 kts | 48° |
| 2026-05-08 01:33 | -1.16675 | 31.05443 | 24206 ft | 489 kts | 48° |
| 2026-05-08 01:34 | -1.14407 | 31.07912 | 24398 ft | 490 kts | 48° |
| 2026-05-08 01:34 | -1.12099 | 31.10425 | 24584 ft | 491 kts | 48° |
| 2026-05-08 01:34 | -1.09787 | 31.12942 | 24763 ft | 492 kts | 48° |
| 2026-05-08 01:34 | -1.07466 | 31.15469 | 24939 ft | 494 kts | 48° |
| 2026-05-08 01:35 | -1.05140 | 31.18002 | 25070 ft | 495 kts | 48° |
| 2026-05-08 01:35 | -1.02811 | 31.20537 | 25087 ft | 495 kts | 48° |
| 2026-05-08 01:35 | -1.00490 | 31.23064 | 25088 ft | 495 kts | 48° |
| 2026-05-08 01:35 | -0.98195 | 31.25644 | 25088 ft | 494 kts | 50° |
| 2026-05-08 01:36 | -0.95989 | 31.28273 | 25087 ft | 494 kts | 51° |
| 2026-05-08 01:36 | -0.93799 | 31.30920 | 25086 ft | 494 kts | 51° |
| 2026-05-08 01:36 | -0.91600 | 31.33566 | 25085 ft | 494 kts | 51° |
| 2026-05-08 01:36 | -0.89402 | 31.36201 | 25085 ft | 494 kts | 50° |
| 2026-05-08 01:37 | -0.87195 | 31.38841 | 25084 ft | 494 kts | 50° |
| 2026-05-08 01:37 | -0.84988 | 31.41479 | 25084 ft | 494 kts | 50° |
| 2026-05-08 01:37 | -0.82784 | 31.44111 | 25083 ft | 494 kts | 50° |
| 2026-05-08 01:37 | -0.80580 | 31.46741 | 25083 ft | 494 kts | 50° |
| 2026-05-08 01:38 | -0.78368 | 31.49379 | 25082 ft | 494 kts | 50° |
| 2026-05-08 01:38 | -0.76161 | 31.52011 | 25082 ft | 494 kts | 50° |
| 2026-05-08 01:38 | -0.73952 | 31.54646 | 25081 ft | 494 kts | 50° |
| 2026-05-08 01:38 | -0.71746 | 31.57276 | 25081 ft | 494 kts | 50° |
| 2026-05-08 01:39 | -0.69540 | 31.59922 | 25079 ft | 494 kts | 51° |
| 2026-05-08 01:39 | -0.67501 | 31.62682 | 25080 ft | 494 kts | 56° |
| 2026-05-08 01:39 | -0.65703 | 31.65598 | 25079 ft | 493 kts | 61° |
| 2026-05-08 01:39 | -0.63933 | 31.68522 | 25076 ft | 489 kts | 55° |
| 2026-05-08 01:40 | -0.61810 | 31.71130 | 25019 ft | 477 kts | 47° |
| 2026-05-08 01:40 | -0.59431 | 31.73371 | 24230 ft | 470 kts | 40° |
| 2026-05-08 01:40 | -0.56754 | 31.75277 | 23212 ft | 472 kts | 33° |
| 2026-05-08 01:40 | -0.54006 | 31.77055 | 22438 ft | 468 kts | 33° |
| 2026-05-08 01:41 | -0.51286 | 31.78806 | 21754 ft | 462 kts | 33° |
| 2026-05-08 01:41 | -0.48613 | 31.80527 | 21045 ft | 456 kts | 33° |
| 2026-05-08 01:41 | -0.45953 | 31.82242 | 20328 ft | 451 kts | 33° |
| 2026-05-08 01:41 | -0.43335 | 31.83930 | 19652 ft | 445 kts | 33° |
| 2026-05-08 01:42 | -0.40750 | 31.85598 | 18942 ft | 441 kts | 33° |
| 2026-05-08 01:42 | -0.38212 | 31.87236 | 18275 ft | 435 kts | 33° |
| 2026-05-08 01:42 | -0.35689 | 31.88864 | 17590 ft | 431 kts | 33° |
| 2026-05-08 01:42 | -0.33184 | 31.90480 | 16896 ft | 426 kts | 33° |
| 2026-05-08 01:43 | -0.30702 | 31.92081 | 16217 ft | 422 kts | 33° |
| 2026-05-08 01:43 | -0.28248 | 31.93665 | 15537 ft | 418 kts | 33° |
| 2026-05-08 01:43 | -0.25822 | 31.95231 | 14865 ft | 413 kts | 33° |
| 2026-05-08 01:43 | -0.23416 | 31.96784 | 14205 ft | 409 kts | 33° |
| 2026-05-08 01:44 | -0.21035 | 31.98321 | 13587 ft | 404 kts | 33° |
| 2026-05-08 01:44 | -0.18697 | 31.99830 | 13159 ft | 395 kts | 33° |
| 2026-05-08 01:44 | -0.16428 | 32.01294 | 12977 ft | 380 kts | 33° |
| 2026-05-08 01:44 | -0.14266 | 32.02690 | 12838 ft | 359 kts | 33° |
| 2026-05-08 01:45 | -0.12229 | 32.04005 | 12702 ft | 339 kts | 33° |
| 2026-05-08 01:45 | -0.10296 | 32.05252 | 12594 ft | 321 kts | 33° |
| 2026-05-08 01:45 | -0.08470 | 32.06431 | 12495 ft | 305 kts | 33° |
| 2026-05-08 01:45 | -0.06724 | 32.07558 | 12317 ft | 293 kts | 33° |
| 2026-05-08 01:46 | -0.05027 | 32.08654 | 11964 ft | 289 kts | 33° |
| 2026-05-08 01:46 | -0.03348 | 32.09737 | 11541 ft | 287 kts | 33° |
| 2026-05-08 01:46 | -0.01666 | 32.10823 | 11086 ft | 287 kts | 33° |
| 2026-05-08 01:46 | 0.00008 | 32.11904 | 10656 ft | 287 kts | 33° |
| 2026-05-08 01:47 | 0.01676 | 32.12981 | 10320 ft | 284 kts | 33° |
| 2026-05-08 01:47 | 0.02771 | 32.13687 | 10201 ft | 282 kts | 33° |
| 2026-05-08 01:47 | 0.04408 | 32.14744 | 9998 ft | 279 kts | 33° |
| 2026-05-08 01:48 | 0.08196 | 32.17189 | 9328 ft | 279 kts | 33° |
| 2026-05-08 01:48 | 0.09829 | 32.18244 | 9033 ft | 280 kts | 33° |
| 2026-05-08 01:48 | 0.10935 | 32.18958 | 8831 ft | 280 kts | 33° |
| 2026-05-08 01:48 | 0.12572 | 32.20014 | 8533 ft | 280 kts | 33° |
| 2026-05-08 01:49 | 0.14211 | 32.21073 | 8232 ft | 281 kts | 33° |
| 2026-05-08 01:49 | 0.15833 | 32.22120 | 7900 ft | 282 kts | 33° |
| 2026-05-08 01:49 | 0.17479 | 32.23182 | 7645 ft | 280 kts | 33° |
| 2026-05-08 01:49 | 0.19122 | 32.24243 | 7475 ft | 274 kts | 33° |
| 2026-05-08 01:50 | 0.20624 | 32.25330 | 7302 ft | 267 kts | 45° |
| 2026-05-08 01:50 | 0.21731 | 32.26773 | 7170 ft | 259 kts | 57° |
| 2026-05-08 01:50 | 0.22666 | 32.28295 | 6946 ft | 255 kts | 59° |
| 2026-05-08 01:50 | 0.23559 | 32.29790 | 6869 ft | 245 kts | 59° |
| 2026-05-08 01:51 | 0.24419 | 32.31231 | 6862 ft | 238 kts | 59° |
| 2026-05-08 01:51 | 0.25202 | 32.32665 | 6846 ft | 233 kts | 69° |
| 2026-05-08 01:51 | 0.25590 | 32.34225 | 6846 ft | 231 kts | 81° |
| 2026-05-08 01:51 | 0.25832 | 32.35816 | 6813 ft | 232 kts | 82° |
| 2026-05-08 01:52 | 0.26057 | 32.37416 | 6786 ft | 233 kts | 83° |
| 2026-05-08 01:52 | 0.26165 | 32.39026 | 6727 ft | 233 kts | 97° |
| 2026-05-08 01:52 | 0.25575 | 32.40522 | 6613 ft | 234 kts | 126° |
| 2026-05-08 01:52 | 0.24343 | 32.41551 | 6520 ft | 229 kts | 154° |
| 2026-05-08 01:53 | 0.22869 | 32.41965 | 6569 ft | 213 kts | 173° |
| 2026-05-08 01:53 | 0.21456 | 32.42100 | 6693 ft | 195 kts | 174° |
| 2026-05-08 01:53 | 0.20176 | 32.42224 | 6658 ft | 177 kts | 175° |
| 2026-05-08 01:53 | 0.18991 | 32.42338 | 6492 ft | 167 kts | 175° |
| 2026-05-08 01:54 | 0.17860 | 32.42448 | 6319 ft | 160 kts | 175° |
| 2026-05-08 01:54 | 0.16759 | 32.42554 | 6124 ft | 157 kts | 175° |
| 2026-05-08 01:54 | 0.15686 | 32.42657 | 5905 ft | 155 kts | 175° |
| 2026-05-08 01:54 | 0.14616 | 32.42760 | 5675 ft | 154 kts | 175° |
| 2026-05-08 01:55 | 0.13549 | 32.42863 | 5447 ft | 154 kts | 175° |
| 2026-05-08 01:55 | 0.12495 | 32.42965 | 5327 ft | 150 kts | 175° |
| 2026-05-08 01:55 | 0.11490 | 32.43062 | 5346 ft | 142 kts | 175° |
| 2026-05-08 01:55 | 0.10504 | 32.43156 | 4931 ft | 144 kts | 175° |
| 2026-05-08 01:56 | 0.09494 | 32.43222 | 4590 ft | 146 kts | 177° |
| 2026-05-08 01:56 | 0.08456 | 32.43300 | 4303 ft | 149 kts | 175° |
| 2026-05-08 01:56 | 0.07394 | 32.43400 | 4006 ft | 155 kts | 173° |
| 2026-05-08 01:56 | 0.06362 | 32.43524 | 3894 ft | 148 kts | 173° |
| 2026-05-08 01:57 | 0.05370 | 32.43651 | 3792 ft | 139 kts | 172° |
| 2026-05-08 01:57 | 0.04596 | 32.43751 | 3790 ft | 75 kts | 168° |
| 2026-05-08 01:57 | 0.04257 | 32.43807 | 3790 ft | 36 kts | 176° |
| 2026-05-08 01:57 | 0.04045 | 32.43841 | 3790 ft | 20 kts | 164° |
| 2026-05-08 01:58 | 0.03982 | 32.43875 | 3790 ft | 5 kts | 110° |
| 2026-05-08 01:58 | 0.03988 | 32.43897 | 3790 ft | 6 kts | 52° |
| 2026-05-08 01:58 | 0.04035 | 32.43949 | 3790 ft | 13 kts | 48° |
| 2026-05-08 01:58 | 0.04075 | 32.44018 | 3790 ft | 11 kts | 73° |
| 2026-05-08 01:59 | 0.04115 | 32.44074 | 3790 ft | 8 kts | 58° |
| 2026-05-08 01:59 | 0.04130 | 32.44129 | 3790 ft | 9 kts | 81° |
| 2026-05-08 01:59 | 0.04142 | 32.44218 | 3790 ft | 8 kts | 83° |
| 2026-05-08 01:59 | 0.04144 | 32.44235 | 3790 ft | 0 kts | 83° |